Terminal Aerodrome Forecast
Issued by NWS

Home | Current Version | Previous Version | Text Only | Print | Product List | Glossary On
Versions: 1 2 3 4 5 6 7 8 9 10 11 12 13 14 15 16 17 18 19 20 21 22 23 24 25 26 27 28 29 30 31 32 33 34 35
000
FTPQ31 PGUM 260200 AAB
TAFPQ
TAF AMD

PGSN 260247Z 2603/2624 13009KT P6SM VCSH SCT012 SCT030 BKN120
      TEMPO 2603/2605 3SM +SHRA SCT012 OVC030
     FM260700 15011KT P6SM VCSH SCT015 SCT030 BKN120=

USA.gov is the U.S. government's official web portal to all federal, state and local government web resources and services.